PORT of PETERHEAD

País: United Kingdom País: United Kingdom [GB]
Latitude / Longitude: 57.49838° / -1.781907° Mostrar no mapa
Hora local:  [UTC +1]
UN/LOCODE: GBPHD
Navios actualmente no Porto: 17
Chegadas previstas: 6

Chegadas e Partidas recentes


Nome do navio
Chegada (UTC)
Chegada (LT)
Partida (UTC)
Partida (LT)
Vessel Type: Iates & outros  TULLA MHOR 2014-08-15 14:57:00 2014-08-15 15:57:00 2014-08-23 05:20:00 2014-08-23 06:20:00
Vessel Type: Navios de carga  RITSKE 2014-08-22 18:19:00 2014-08-22 19:19:00 2014-08-23 05:13:00 2014-08-23 06:13:00
Vessel Type: Navios de carga  FREYJA VIKING 2014-08-22 22:09:00 2014-08-22 23:09:00 2014-08-23 04:29:00 2014-08-23 05:29:00
Vessel Type: Rebocador, piloto etc  BLUE TOON 2014-08-23 02:41:00 2014-08-23 03:41:00
Vessel Type: Iates & outros  BLUE FIGHTER 2014-08-23 02:41:00 2014-08-23 03:41:00
Vessel Type: Rebocador, piloto etc  BLUE TOON 2014-08-13 00:08:00 2014-08-13 01:08:00 2014-08-23 02:15:00 2014-08-23 03:15:00
Vessel Type: Navios de carga  FAR SUPERIOR 2014-08-22 21:26:00 2014-08-22 22:26:00 2014-08-23 02:14:00 2014-08-23 03:14:00
Vessel Type: Navios de carga  FS AQUARIUS 2014-08-22 23:14:00 2014-08-23 00:14:00 2014-08-23 01:57:00 2014-08-23 02:57:00
Vessel Type: Navios de carga  SOLVIK SUPPLIER 2014-08-23 00:26:00 2014-08-23 01:26:00
Vessel Type: Pesca  CHRISTINA S 2014-08-23 00:13:00 2014-08-23 01:13:00

Chegadas previstas


Nome do navio
Scheduled Arrival (UTC)
Previsão de chegada (hora local)
Chegada estimada (ETA) (UTC)
Chegada estimada
Vessel Type: Navios de carga  RITSKE 2014-08-22 12:00:00 2014-08-22 13:00:00 2014-08-22 15:16:00 2014-08-22 16:16:00
Vessel Type: Navios de carga  ESVAGT ALPHA 2014-08-22 17:00:00 2014-08-22 18:00:00 2014-08-22 18:30:00 2014-08-22 19:30:00
Vessel Type: Navios de carga  VIKING DYNAMIC 2014-08-22 20:00:00 2014-08-22 21:00:00 2014-08-23 02:33:00 2014-08-23 03:33:00
Vessel Type: Navios de carga  LADY MENNA 2014-08-22 22:00:00 2014-08-22 23:00:00 2014-08-22 18:27:00 2014-08-22 19:27:00
OCEANIC 2014-08-23 07:00:00 2014-08-23 08:00:00 2014-08-23 07:31:00 2014-08-23 08:31:00
Vessel Type: Navios Cisterna  WHITCHAMPION 2014-08-25 02:00:00 2014-08-25 03:00:00 2014-08-25 06:33:00 2014-08-25 07:33:00

Wind Forecast


    
Hora (UTC)
Velocidade
Direction
Temperature
2014-08-23 06:00:00 21 knots 332° 11°C
2014-08-23 09:00:00 21 knots 330° 11°C
2014-08-23 12:00:00 23 knots 326° 12°C
2014-08-23 15:00:00 24 knots 326° 12°C
2014-08-23 18:00:00 24 knots 331° 11°C
2014-08-23 21:00:00 22 knots 330° 10°C
2014-08-24 00:00:00 20 knots 325° 9°C
2014-08-24 03:00:00 19 knots 322° 8°C
2014-08-24 06:00:00 18 knots 320° 8°C
2014-08-24 09:00:00 16 knots 325° 8°C
2014-08-24 12:00:00 13 knots 337° 10°C
2014-08-24 15:00:00 8 knots 338° 11°C
2014-08-24 18:00:00 3 knots 130° 11°C
2014-08-24 21:00:00 7 knots 203° 11°C
2014-08-25 00:00:00 9 knots 216° 11°C
2014-08-25 03:00:00 10 knots 215° 11°C
2014-08-25 06:00:00 9 knots 213° 11°C